Time;durP1;ratioP1;P1;durP2;ratioP2;P2;SDS_P1;SDS_P2;PMS_P1;PMS_P2;Temp;Humidity;BMP_temperature;BMP_pressure;BME280_temperature;BME280_humidity;BME280_pressure;Samples;Min_cycle;Max_cycle;Signal;HPM_P1;HPM_P2
2023/02/28 00:01:27;;;;;;;2.90;2.67;;;-1.00;99.90;;;;;;5060962;28;20438;-73
2023/02/28 00:03:53;;;;;;;3.27;2.97;;;-1.00;99.90;;;;;;5062441;28;20428;-73
2023/02/28 00:06:19;;;;;;;4.03;3.63;;;-1.10;99.90;;;;;;5067374;28;20436;-73
2023/02/28 00:08:45;;;;;;;3.43;3.13;;;-1.10;99.90;;;;;;5056743;28;20173;-73
2023/02/28 00:11:13;;;;;;;3.23;3.00;;;-1.10;99.90;;;;;;5055504;28;20478;-73
2023/02/28 00:13:41;;;;;;;3.63;2.93;;;-1.20;99.90;;;;;;5064421;28;20172;-73
2023/02/28 00:16:10;;;;;;;3.17;2.80;;;-1.20;99.90;;;;;;5065467;28;20442;-73
2023/02/28 00:18:36;;;;;;;2.73;2.50;;;-1.10;99.90;;;;;;5056514;28;20431;-73
2023/02/28 00:21:02;;;;;;;3.80;3.20;;;-1.20;99.90;;;;;;5059920;28;20939;-73
2023/02/28 00:23:27;;;;;;;4.80;3.03;;;-1.20;99.90;;;;;;5065184;28;20437;-73
2023/02/28 00:25:53;;;;;;;5.07;3.27;;;-1.20;99.90;;;;;;5064235;28;20213;-73
2023/02/28 00:28:19;;;;;;;5.00;3.30;;;-1.20;99.90;;;;;;5053490;28;20199;-73
2023/02/28 00:30:44;;;;;;;5.57;3.70;;;-1.30;99.90;;;;;;5068265;28;20250;-74
2023/02/28 00:33:10;;;;;;;4.53;3.53;;;-1.30;99.90;;;;;;5072883;28;20519;-73
2023/02/28 00:35:36;;;;;;;4.03;3.63;;;-1.30;99.90;;;;;;5068895;28;20540;-73
2023/02/28 00:38:02;;;;;;;3.47;3.17;;;-1.30;99.90;;;;;;5068795;28;20205;-73
2023/02/28 00:40:27;;;;;;;4.67;4.07;;;-1.30;99.90;;;;;;5044515;28;20656;-73
2023/02/28 00:42:53;;;;;;;4.53;2.90;;;-1.40;99.90;;;;;;5039574;28;20479;-73
2023/02/28 00:45:18;;;;;;;3.40;2.77;;;-1.40;99.90;;;;;;5050965;28;20216;-73
2023/02/28 00:47:46;;;;;;;4.27;3.23;;;-1.30;99.90;;;;;;5054369;28;20170;-73
2023/02/28 00:50:12;;;;;;;2.83;2.63;;;-1.40;99.90;;;;;;5053308;28;20215;-73
2023/02/28 00:52:38;;;;;;;4.10;3.07;;;-1.30;99.90;;;;;;5061269;28;20745;-73
2023/02/28 00:55:04;;;;;;;3.50;3.10;;;-1.40;99.90;;;;;;5063495;28;20519;-73
2023/02/28 00:57:29;;;;;;;7.63;3.57;;;-1.40;99.90;;;;;;5062119;28;20571;-73
2023/02/28 00:59:55;;;;;;;3.63;3.33;;;-1.40;99.90;;;;;;5057196;28;20452;-73
2023/02/28 01:02:22;;;;;;;5.27;3.30;;;-1.30;99.90;;;;;;5054005;28;20701;-73
2023/02/28 01:04:47;;;;;;;3.30;3.00;;;-1.40;99.90;;;;;;5059300;28;20196;-74
2023/02/28 01:07:14;;;;;;;3.93;3.20;;;-1.40;99.90;;;;;;5055238;28;20440;-74
2023/02/28 01:09:40;;;;;;;3.97;3.40;;;-1.40;99.90;;;;;;5062531;28;20196;-73
2023/02/28 01:12:07;;;;;;;4.00;3.30;;;-1.30;99.90;;;;;;5053602;28;20450;-73
2023/02/28 01:14:32;;;;;;;3.47;3.17;;;-1.40;99.90;;;;;;5064682;28;20928;-73
2023/02/28 01:16:58;;;;;;;4.90;3.90;;;-1.50;99.90;;;;;;5060548;28;20469;-73
2023/02/28 01:19:23;;;;;;;3.63;3.33;;;-1.50;99.90;;;;;;5055161;28;20296;-73
2023/02/28 01:21:49;;;;;;;4.27;3.83;;;-1.40;99.90;;;;;;5056656;28;20254;-73
2023/02/28 01:24:14;;;;;;;5.90;3.63;;;-1.50;99.90;;;;;;5056702;28;20231;-73
2023/02/28 01:26:40;;;;;;;4.50;4.10;;;-1.50;99.90;;;;;;5064477;28;20184;-73
2023/02/28 01:29:05;;;;;;;5.00;3.47;;;-1.50;99.90;;;;;;5055982;28;20204;-73
2023/02/28 01:31:31;;;;;;;4.00;3.40;;;-1.50;99.90;;;;;;5063721;28;20177;-73
2023/02/28 01:33:56;;;;;;;4.50;3.33;;;-1.50;99.90;;;;;;5049916;28;20174;-73
2023/02/28 01:36:24;;;;;;;5.87;3.23;;;-1.60;99.90;;;;;;5051261;28;20234;-73
2023/02/28 01:38:49;;;;;;;4.43;4.03;;;-1.60;99.90;;;;;;5057719;28;20189;-73
2023/02/28 01:41:21;;;;;;;3.80;3.43;;;-1.60;99.90;;;;;;5057814;28;20506;-73
2023/02/28 01:43:46;;;;;;;4.37;3.57;;;-1.60;99.90;;;;;;5064187;28;20180;-73
2023/02/28 01:46:13;;;;;;;4.73;3.97;;;-1.60;99.90;;;;;;5063226;28;20433;-73
2023/02/28 01:48:42;;;;;;;4.80;4.17;;;-1.60;99.90;;;;;;5059224;28;20177;-73
2023/02/28 01:51:34;;;;;;;5.30;3.80;;;-1.60;99.90;;;;;;5055761;28;20489;-73
2023/02/28 01:54:13;;;;;;;6.80;4.30;;;-1.60;99.90;;;;;;5058511;28;20489;-73
2023/02/28 01:56:41;;;;;;;4.87;3.90;;;-1.60;99.90;;;;;;5051785;28;20460;-73
2023/02/28 01:59:06;;;;;;;4.67;3.87;;;-1.60;99.90;;;;;;5059547;28;20459;-73
2023/02/28 02:01:32;;;;;;;7.00;4.03;;;-1.60;99.90;;;;;;5060330;28;20431;-73
2023/02/28 02:04:00;;;;;;;5.07;3.73;;;-1.60;99.90;;;;;;5058942;28;20177;-73
2023/02/28 02:06:35;;;;;;;3.83;3.40;;;-1.60;99.90;;;;;;5063239;28;20173;-73
2023/02/28 02:09:02;;;;;;;5.07;3.70;;;-1.60;99.90;;;;;;5057146;28;20505;-73
2023/02/28 02:11:29;;;;;;;5.53;3.93;;;-1.50;99.90;;;;;;5054597;28;20443;-73
2023/02/28 02:14:16;;;;;;;4.53;4.13;;;-1.50;99.90;;;;;;5050964;28;20424;-73
2023/02/28 02:16:45;;;;;;;4.40;3.50;;;-1.60;99.90;;;;;;5055408;28;20459;-73
2023/02/28 02:19:35;;;;;;;8.87;4.13;;;-1.50;99.90;;;;;;5061705;28;20470;-73
2023/02/28 02:22:27;;;;;;;4.00;3.60;;;-1.50;99.90;;;;;;5060038;28;20511;-72
2023/02/28 02:25:20;;;;;;;4.50;3.90;;;-1.50;99.90;;;;;;5047841;28;20939;-72
2023/02/28 02:28:17;;;;;;;10.90;4.03;;;-1.50;99.90;;;;;;5053923;28;20454;-73
2023/02/28 02:30:51;;;;;;;4.70;4.30;;;-1.50;99.90;;;;;;5053654;28;20554;-73
2023/02/28 02:33:46;;;;;;;5.27;4.30;;;-1.50;99.90;;;;;;5061798;28;20958;-73
2023/02/28 02:36:23;;;;;;;4.03;3.70;;;-1.50;99.90;;;;;;5059868;28;20455;-73
2023/02/28 02:39:00;;;;;;;5.70;5.20;;;-1.50;99.90;;;;;;5062400;28;20486;-73
2023/02/28 02:41:52;;;;;;;7.43;5.17;;;-1.50;99.90;;;;;;5058501;28;20424;-73
2023/02/28 02:44:26;;;;;;;7.97;4.50;;;-1.40;99.90;;;;;;5055536;28;20490;-73
2023/02/28 02:46:59;;;;;;;4.50;3.50;;;-1.40;99.90;;;;;;5055691;28;20784;-73
2023/02/28 02:49:31;;;;;;;5.03;4.50;;;-1.40;99.90;;;;;;5058888;28;21062;-73
2023/02/28 02:52:01;;;;;;;5.33;4.93;;;-1.40;99.90;;;;;;5059279;28;20435;-73
2023/02/28 02:54:34;;;;;;;4.83;4.33;;;-1.40;99.90;;;;;;5056569;28;20443;-73
2023/02/28 02:57:05;;;;;;;5.53;5.03;;;-1.40;99.90;;;;;;5062935;28;20459;-73
2023/02/28 02:59:33;;;;;;;5.53;4.87;;;-1.30;99.90;;;;;;5055251;28;20972;-73
2023/02/28 03:02:03;;;;;;;4.43;4.03;;;-1.30;99.90;;;;;;5050729;28;20481;-73
2023/02/28 03:04:34;;;;;;;5.43;5.00;;;-1.30;99.90;;;;;;5050996;28;20800;-74
2023/02/28 03:06:59;;;;;;;5.90;4.93;;;-1.20;99.90;;;;;;5060587;28;20434;-73
2023/02/28 03:09:26;;;;;;;6.40;4.60;;;-1.20;99.90;;;;;;5059169;28;20470;-73
2023/02/28 03:11:54;;;;;;;4.40;3.97;;;-1.20;99.90;;;;;;5057932;28;20542;-73
2023/02/28 03:14:48;;;;;;;5.00;4.50;;;-1.20;99.90;;;;;;5060833;28;20517;-74
2023/02/28 03:17:53;;;;;;;8.70;4.80;;;-1.30;99.90;;;;;;5049919;28;20471;-74
2023/02/28 03:20:51;;;;;;;8.17;4.83;;;-1.30;99.90;;;;;;5052144;28;20832;-74
2023/02/28 03:23:50;;;;;;;6.00;4.43;;;-1.20;99.90;;;;;;5047938;28;20496;-73
2023/02/28 03:26:21;;;;;;;6.33;5.47;;;-1.20;99.90;;;;;;5057853;28;20443;-73
2023/02/28 03:29:12;;;;;;;10.20;6.03;;;-1.20;99.90;;;;;;5065580;28;20519;-74
2023/02/28 03:31:45;;;;;;;7.67;4.83;;;-1.20;99.90;;;;;;5060972;28;20430;-73
2023/02/28 03:34:18;;;;;;;5.63;5.13;;;-1.20;99.90;;;;;;5058967;28;20435;-72
2023/02/28 03:36:53;;;;;;;5.00;4.00;;;-1.20;99.90;;;;;;5060792;28;22032;-73
2023/02/28 03:39:42;;;;;;;6.23;4.93;;;-1.20;99.90;;;;;;5066816;28;20539;-73
2023/02/28 03:42:21;;;;;;;6.00;5.40;;;-1.20;99.90;;;;;;5066018;28;20442;-73
2023/02/28 03:44:52;;;;;;;6.07;5.47;;;-1.20;99.90;;;;;;5062072;28;21037;-74
2023/02/28 03:47:27;;;;;;;6.10;5.50;;;-1.30;99.90;;;;;;5065698;28;20428;-73
2023/02/28 03:50:06;;;;;;;5.27;4.77;;;-1.30;99.90;;;;;;5067588;28;20457;-74
2023/02/28 03:52:35;;;;;;;6.93;4.97;;;-1.30;99.90;;;;;;5054772;28;20439;-73
2023/02/28 03:55:06;;;;;;;6.63;6.03;;;-1.20;99.90;;;;;;5057696;28;20991;-73
2023/02/28 03:58:01;;;;;;;7.13;5.27;;;-1.20;99.90;;;;;;5047761;28;20971;-73
2023/02/28 04:00:38;;;;;;;7.83;5.97;;;-1.20;99.90;;;;;;5058561;28;20512;-73
2023/02/28 04:03:04;;;;;;;7.33;5.10;;;-1.20;99.90;;;;;;5059094;28;20431;-73
2023/02/28 04:05:30;;;;;;;8.67;5.00;;;-1.20;99.90;;;;;;5066100;28;20439;-73
2023/02/28 04:08:06;;;;;;;12.03;6.80;;;-1.20;99.90;;;;;;5059512;28;20526;-73
2023/02/28 04:10:32;;;;;;;8.20;6.50;;;-1.20;99.90;;;;;;5051033;28;20209;-74
2023/02/28 04:12:58;;;;;;;8.50;6.67;;;-1.10;99.90;;;;;;5054325;28;20873;-73
2023/02/28 04:15:24;;;;;;;6.37;5.40;;;-1.10;99.90;;;;;;5064786;28;20186;-73
2023/02/28 04:17:50;;;;;;;6.73;6.13;;;-1.10;99.90;;;;;;5065734;28;20223;-73
2023/02/28 04:20:16;;;;;;;6.97;5.60;;;-1.00;99.90;;;;;;5063322;28;21012;-73
2023/02/28 04:22:42;;;;;;;7.10;5.33;;;-1.00;99.90;;;;;;5061393;28;20192;-74
2023/02/28 04:25:07;;;;;;;9.13;5.70;;;-1.00;99.90;;;;;;5062412;28;20458;-73
2023/02/28 04:27:33;;;;;;;7.10;5.47;;;-0.90;99.90;;;;;;5057871;28;20190;-74
2023/02/28 04:29:59;;;;;;;6.37;5.80;;;-0.90;99.90;;;;;;5063131;28;20209;-73
2023/02/28 04:32:24;;;;;;;6.33;5.30;;;-0.90;99.90;;;;;;5062938;28;20193;-73
2023/02/28 04:34:50;;;;;;;6.00;5.40;;;-0.90;99.90;;;;;;5061166;28;20276;-73
2023/02/28 04:37:15;;;;;;;10.70;6.77;;;-0.90;99.90;;;;;;5061659;28;20578;-73
2023/02/28 04:39:42;;;;;;;8.00;5.60;;;-0.90;99.90;;;;;;5063417;28;20245;-73
2023/02/28 04:42:09;;;;;;;7.93;6.40;;;-0.90;99.90;;;;;;5058785;28;20260;-73
2023/02/28 04:44:34;;;;;;;5.87;5.27;;;-0.90;99.90;;;;;;5057347;28;20435;-73
2023/02/28 04:47:00;;;;;;;6.97;6.27;;;-0.80;99.90;;;;;;5057970;28;20443;-73
2023/02/28 04:49:25;;;;;;;6.23;5.63;;;-0.80;99.90;;;;;;5063836;28;20201;-73
2023/02/28 04:51:52;;;;;;;5.33;4.87;;;-0.80;99.90;;;;;;5064310;28;20188;-74
2023/02/28 04:54:18;;;;;;;7.80;6.50;;;-0.80;99.90;;;;;;5063363;28;20181;-74
2023/02/28 04:56:43;;;;;;;8.37;5.50;;;-0.90;99.90;;;;;;5052285;28;20581;-73
2023/02/28 04:59:09;;;;;;;7.60;6.23;;;-0.80;99.90;;;;;;5050278;28;20256;-73
2023/02/28 05:01:36;;;;;;;6.30;5.70;;;-0.80;99.90;;;;;;5053221;28;20177;-73
2023/02/28 05:04:03;;;;;;;6.70;5.93;;;-0.80;99.90;;;;;;5066125;28;20634;-73
2023/02/28 05:06:31;;;;;;;7.43;5.53;;;-0.80;99.90;;;;;;5056572;28;20434;-74
2023/02/28 05:08:57;;;;;;;7.33;6.10;;;-0.80;99.90;;;;;;5059334;28;20820;-74
2023/02/28 05:11:29;;;;;;;8.10;6.63;;;-0.80;99.90;;;;;;5062716;28;20436;-74
2023/02/28 05:13:55;;;;;;;7.10;6.10;;;-0.80;99.90;;;;;;5064750;28;20527;-73
2023/02/28 05:16:20;;;;;;;6.67;5.83;;;-0.80;99.90;;;;;;5058179;28;21029;-73
2023/02/28 05:18:49;;;;;;;5.77;5.17;;;-0.70;99.90;;;;;;5056195;28;20578;-73
2023/02/28 05:21:47;;;;;;;6.07;5.47;;;-0.70;99.90;;;;;;5054015;28;20404;-74
2023/02/28 05:24:13;;;;;;;8.30;6.20;;;-0.70;99.90;;;;;;5062729;28;20943;-74
2023/02/28 05:26:41;;;;;;;6.43;5.57;;;-0.80;99.90;;;;;;5072735;28;20506;-73
2023/02/28 05:29:07;;;;;;;7.57;6.70;;;-0.80;99.90;;;;;;5072475;28;20203;-73
2023/02/28 05:31:33;;;;;;;8.17;6.27;;;-0.80;99.90;;;;;;5053636;28;20463;-73
2023/02/28 05:33:58;;;;;;;7.00;6.30;;;-0.80;99.90;;;;;;5053140;28;20547;-74
2023/02/28 05:36:24;;;;;;;6.87;6.00;;;-0.80;99.90;;;;;;5053366;28;20432;-74
2023/02/28 05:38:50;;;;;;;6.97;6.27;;;-0.80;99.90;;;;;;5059329;28;20681;-73
2023/02/28 05:41:19;;;;;;;6.53;5.43;;;-0.70;99.90;;;;;;5055008;28;20173;-74
2023/02/28 05:43:44;;;;;;;8.93;6.87;;;-0.70;99.90;;;;;;5053246;28;20435;-73
2023/02/28 05:46:12;;;;;;;8.23;6.20;;;-0.70;99.90;;;;;;5053220;28;20428;-74
2023/02/28 05:48:39;;;;;;;7.00;6.10;;;-0.60;99.90;;;;;;5060577;28;20265;-73
2023/02/28 05:51:05;;;;;;;7.27;6.57;;;-0.60;99.90;;;;;;5052934;28;20432;-73
2023/02/28 05:53:31;;;;;;;7.50;6.63;;;-0.60;99.90;;;;;;5056795;28;20459;-74
2023/02/28 05:55:57;;;;;;;9.33;6.17;;;-0.60;99.90;;;;;;5057447;28;20680;-73
2023/02/28 05:58:23;;;;;;;8.90;6.77;;;-0.60;99.90;;;;;;5060483;28;20984;-73
2023/02/28 06:00:49;;;;;;;7.50;6.37;;;-0.60;99.90;;;;;;5062360;28;20201;-74
2023/02/28 06:03:14;;;;;;;7.90;6.10;;;-0.60;99.90;;;;;;5052901;28;20551;-74
2023/02/28 06:05:40;;;;;;;7.33;6.50;;;-0.60;99.90;;;;;;5064349;28;20211;-73
2023/02/28 06:08:07;;;;;;;7.60;6.47;;;-0.70;99.90;;;;;;5056133;28;20201;-73
2023/02/28 06:10:33;;;;;;;9.70;6.90;;;-0.70;99.90;;;;;;5032885;28;20204;-74
2023/02/28 06:13:03;;;;;;;8.77;7.17;;;-0.70;99.90;;;;;;5064888;28;20418;-74
2023/02/28 06:15:29;;;;;;;13.20;6.90;;;-0.70;99.90;;;;;;5067936;28;20932;-73
2023/02/28 06:17:56;;;;;;;11.03;7.23;;;-0.70;99.90;;;;;;5052104;28;20497;-73
2023/02/28 06:20:22;;;;;;;11.23;6.87;;;-0.60;99.90;;;;;;5054361;28;20459;-74
2023/02/28 06:22:50;;;;;;;9.60;7.50;;;-0.60;99.90;;;;;;5057904;28;20502;-74
2023/02/28 06:25:15;;;;;;;8.87;7.97;;;-0.60;99.90;;;;;;5052269;28;20937;-74
2023/02/28 06:27:41;;;;;;;10.00;7.80;;;-0.60;99.90;;;;;;5052346;28;20438;-74
2023/02/28 06:30:07;;;;;;;15.10;8.93;;;-0.60;99.90;;;;;;5061923;28;20215;-73
2023/02/28 06:32:32;;;;;;;8.83;7.83;;;-0.60;99.90;;;;;;5059619;28;21403;-74
2023/02/28 06:34:58;;;;;;;7.60;6.50;;;-0.60;99.90;;;;;;5051941;28;20524;-74
2023/02/28 06:37:26;;;;;;;7.97;6.67;;;-0.50;99.90;;;;;;5052110;28;20212;-74
2023/02/28 06:39:51;;;;;;;9.93;7.87;;;-0.50;99.90;;;;;;5057588;28;20177;-74
2023/02/28 06:42:17;;;;;;;9.63;6.60;;;-0.50;99.90;;;;;;5071370;28;20763;-73
2023/02/28 06:44:43;;;;;;;11.20;8.27;;;-0.50;99.90;;;;;;5050885;28;20166;-73
2023/02/28 06:47:08;;;;;;;8.23;7.53;;;-0.60;99.90;;;;;;5051628;28;20174;-74
2023/02/28 06:49:35;;;;;;;8.60;7.20;;;-0.60;99.90;;;;;;5049868;28;20462;-72
2023/02/28 06:52:01;;;;;;;10.30;7.80;;;-0.50;99.90;;;;;;5049107;28;20181;-72
2023/02/28 06:54:27;;;;;;;12.63;7.53;;;-0.40;99.90;;;;;;5050155;28;20895;-73
2023/02/28 06:56:54;;;;;;;10.33;7.53;;;-0.50;99.90;;;;;;5052042;28;20201;-72
2023/02/28 06:59:20;;;;;;;9.57;7.20;;;-0.40;99.90;;;;;;5050915;28;20323;-73
2023/02/28 07:01:45;;;;;;;9.80;7.47;;;-0.40;99.90;;;;;;5050122;28;21008;-73
2023/02/28 07:04:12;;;;;;;7.57;6.60;;;-0.40;99.90;;;;;;5052224;28;20586;-72
2023/02/28 07:06:38;;;;;;;10.40;7.50;;;-0.40;99.90;;;;;;5056891;28;20185;-73
2023/02/28 07:09:04;;;;;;;9.80;7.90;;;-0.40;99.90;;;;;;5050414;28;20455;-71
2023/02/28 07:11:30;;;;;;;10.20;7.73;;;-0.40;99.90;;;;;;5058921;28;20177;-72
2023/02/28 07:13:57;;;;;;;9.67;8.67;;;-0.40;99.90;;;;;;5059443;28;20436;-72
2023/02/28 07:16:24;;;;;;;8.17;7.40;;;-0.40;99.90;;;;;;5052021;28;20204;-73
2023/02/28 07:18:49;;;;;;;7.90;7.10;;;-0.30;99.90;;;;;;5057441;28;20559;-73
2023/02/28 07:21:15;;;;;;;10.40;8.43;;;-0.30;99.90;;;;;;5050547;28;21004;-73
2023/02/28 07:23:41;;;;;;;11.00;7.90;;;-0.30;99.90;;;;;;5056990;28;20266;-73
2023/02/28 07:26:14;;;;;;;9.93;7.90;;;-0.30;99.90;;;;;;5050807;28;20520;-72
2023/02/28 07:28:43;;;;;;;9.70;7.60;;;-0.30;99.90;;;;;;5060229;28;20259;-73
2023/02/28 07:31:10;;;;;;;9.37;7.50;;;-0.40;99.90;;;;;;5059964;28;20778;-72
2023/02/28 07:33:36;;;;;;;10.33;8.57;;;-0.30;99.90;;;;;;5047303;28;20444;-72
2023/02/28 07:36:04;;;;;;;9.37;7.83;;;-0.20;99.90;;;;;;5049917;28;20455;-73
2023/02/28 07:38:30;;;;;;;8.13;7.23;;;-0.20;99.90;;;;;;5035442;28;20529;-72
2023/02/28 07:40:55;;;;;;;12.30;8.20;;;-0.10;99.90;;;;;;5057882;28;20838;-73
2023/02/28 07:43:21;;;;;;;10.67;8.00;;;-0.10;99.90;;;;;;5059314;28;20501;-73
2023/02/28 07:45:46;;;;;;;8.03;7.23;;;-0.10;99.90;;;;;;5049853;28;20181;-72
2023/02/28 07:48:12;;;;;;;12.47;8.03;;;-0.20;99.90;;;;;;5045557;28;20236;-72
2023/02/28 07:50:37;;;;;;;10.87;7.70;;;-0.20;99.90;;;;;;5050545;28;20705;-73
2023/02/28 07:53:04;;;;;;;14.00;8.90;;;-0.10;99.90;;;;;;5057405;28;20169;-73
2023/02/28 07:55:29;;;;;;;10.97;8.23;;;-0.10;99.90;;;;;;5050870;28;20177;-73
2023/02/28 07:57:57;;;;;;;10.10;8.63;;;-0.10;99.90;;;;;;5051268;28;20536;-72
2023/02/28 08:00:23;;;;;;;8.00;7.17;;;-0.10;99.90;;;;;;5048237;28;20760;-73
2023/02/28 08:02:49;;;;;;;9.70;8.70;;;0.00;99.90;;;;;;5049128;28;20439;-73
2023/02/28 08:05:14;;;;;;;11.73;8.27;;;0.00;99.90;;;;;;5048972;28;20519;-73
2023/02/28 08:07:40;;;;;;;10.27;8.90;;;0.10;99.90;;;;;;5049772;28;20531;-72
2023/02/28 08:10:06;;;;;;;13.50;9.57;;;0.20;99.90;;;;;;5058881;28;20196;-72
2023/02/28 08:12:32;;;;;;;10.93;8.20;;;0.30;99.90;;;;;;5053744;28;20189;-72
2023/02/28 08:14:57;;;;;;;12.73;9.27;;;0.30;99.90;;;;;;5048044;28;20443;-72
2023/02/28 08:17:23;;;;;;;9.90;9.00;;;0.30;99.90;;;;;;5053925;28;20193;-73
2023/02/28 08:19:49;;;;;;;10.87;8.40;;;0.30;99.90;;;;;;5053676;28;20204;-72
2023/02/28 08:22:14;;;;;;;8.87;7.57;;;0.30;99.90;;;;;;5054219;28;20174;-72
2023/02/28 08:24:42;;;;;;;9.73;8.60;;;0.40;99.90;;;;;;5050260;28;20166;-72
2023/02/28 08:27:08;;;;;;;12.47;9.53;;;0.40;99.90;;;;;;5054768;28;20181;-72
2023/02/28 08:29:33;;;;;;;13.10;9.00;;;0.40;99.90;;;;;;5054028;28;20454;-72
2023/02/28 08:31:59;;;;;;;12.00;9.50;;;0.50;99.90;;;;;;5054639;28;20173;-72
2023/02/28 08:34:24;;;;;;;11.60;8.67;;;0.60;99.90;;;;;;5054357;28;20174;-73
2023/02/28 08:36:50;;;;;;;10.00;7.97;;;0.50;99.90;;;;;;5054610;28;20201;-72
2023/02/28 08:39:15;;;;;;;11.90;9.20;;;0.70;99.90;;;;;;5052501;28;20202;-72
2023/02/28 08:41:43;;;;;;;13.83;9.63;;;0.60;99.90;;;;;;5054071;28;20170;-72
2023/02/28 08:44:09;;;;;;;8.70;7.63;;;0.50;99.90;;;;;;5051895;28;20170;-72
2023/02/28 08:46:34;;;;;;;11.80;9.27;;;0.50;99.90;;;;;;5053539;28;20519;-72
2023/02/28 08:49:01;;;;;;;14.93;8.40;;;0.60;99.90;;;;;;5041021;28;20198;-72
2023/02/28 08:51:28;;;;;;;11.03;9.27;;;0.60;99.90;;;;;;5052228;28;20635;-72
2023/02/28 08:53:59;;;;;;;10.40;9.03;;;0.60;99.90;;;;;;5054668;28;20539;-72
2023/02/28 08:56:26;;;;;;;10.30;9.03;;;0.60;99.90;;;;;;5053959;28;20463;-72
2023/02/28 08:58:55;;;;;;;13.30;8.90;;;0.50;99.90;;;;;;5051677;28;20472;-72
2023/02/28 09:01:23;;;;;;;13.03;8.50;;;0.40;99.90;;;;;;5053029;28;20959;-72
2023/02/28 09:03:50;;;;;;;12.80;9.70;;;0.50;99.90;;;;;;5058858;28;20504;-72
2023/02/28 09:06:19;;;;;;;13.10;9.60;;;0.60;99.90;;;;;;5061826;28;20431;-72
2023/02/28 09:08:44;;;;;;;11.40;9.53;;;0.70;99.90;;;;;;5047222;28;20445;-72
2023/02/28 09:11:10;;;;;;;15.77;10.60;;;0.70;99.90;;;;;;5049466;28;20521;-72
2023/02/28 09:13:37;;;;;;;12.17;9.60;;;0.80;99.90;;;;;;5057351;28;20262;-72
2023/02/28 09:16:04;;;;;;;13.63;9.40;;;0.80;99.90;;;;;;5053158;28;20518;-72
2023/02/28 09:18:30;;;;;;;16.07;9.60;;;0.80;99.90;;;;;;5051231;28;22008;-72
2023/02/28 09:20:57;;;;;;;13.53;8.83;;;0.70;99.90;;;;;;5051808;28;20448;-72
2023/02/28 09:23:23;;;;;;;11.63;9.60;;;0.80;99.90;;;;;;5053237;28;20502;-72
2023/02/28 09:25:54;;;;;;;8.90;7.63;;;0.80;99.90;;;;;;5064420;28;20460;-72
2023/02/28 09:28:20;;;;;;;11.63;10.13;;;0.90;99.90;;;;;;5053695;28;20434;-72
2023/02/28 09:30:48;;;;;;;11.13;9.70;;;0.80;99.90;;;;;;5055562;28;20542;-72
2023/02/28 09:33:15;;;;;;;14.07;9.40;;;0.80;99.90;;;;;;5050853;28;20814;-72
2023/02/28 09:35:40;;;;;;;13.20;10.17;;;0.80;99.90;;;;;;5057156;28;20839;-72
2023/02/28 09:38:07;;;;;;;12.17;9.10;;;0.80;99.90;;;;;;5054827;28;20499;-72
2023/02/28 09:40:51;;;;;;;10.00;8.20;;;0.90;99.90;;;;;;5057484;28;20237;-72
2023/02/28 09:43:19;;;;;;;12.03;8.57;;;0.80;99.90;;;;;;5056649;28;20467;-72
2023/02/28 09:46:10;;;;;;;11.37;10.13;;;0.80;99.90;;;;;;5063878;28;20489;-72
2023/02/28 09:48:42;;;;;;;12.57;9.53;;;0.90;99.90;;;;;;5057892;28;20440;-72
2023/02/28 09:51:22;;;;;;;14.37;9.23;;;0.90;99.90;;;;;;5051616;28;20471;-72
2023/02/28 09:53:48;;;;;;;12.50;9.53;;;1.00;99.90;;;;;;5047297;28;20821;-72
2023/02/28 09:56:25;;;;;;;11.47;8.80;;;1.20;99.90;;;;;;5061695;28;20430;-72
2023/02/28 09:58:58;;;;;;;11.50;9.47;;;1.30;99.90;;;;;;5060102;28;20240;-72
2023/02/28 10:02:00;;;;;;;13.57;10.07;;;1.50;99.90;;;;;;5045143;28;20430;-72
2023/02/28 10:04:41;;;;;;;14.87;10.03;;;1.50;99.90;;;;;;5052419;28;20976;-72
2023/02/28 10:07:32;;;;;;;8.83;7.93;;;1.70;99.90;;;;;;5060698;28;20589;-71
2023/02/28 10:10:02;;;;;;;10.97;9.17;;;1.70;99.90;;;;;;5048709;28;20467;-72
2023/02/28 10:12:30;;;;;;;12.10;9.63;;;1.70;99.90;;;;;;5046999;28;20444;-72
2023/02/28 10:14:59;;;;;;;12.23;10.40;;;1.60;99.90;;;;;;5049111;28;20493;-72
2023/02/28 10:17:30;;;;;;;11.23;9.07;;;1.60;99.90;;;;;;5050595;28;20832;-72
2023/02/28 10:20:11;;;;;;;11.33;9.93;;;1.60;99.90;;;;;;5051065;28;20554;-72
2023/02/28 10:23:14;;;;;;;11.37;10.17;;;1.80;99.90;;;;;;5058836;28;20432;-72
2023/02/28 10:25:39;;;;;;;12.77;10.13;;;1.90;99.90;;;;;;5050765;28;20436;-73
2023/02/28 10:28:08;;;;;;;13.17;9.47;;;2.10;99.90;;;;;;5054813;28;20436;-72
2023/02/28 10:30:34;;;;;;;13.90;10.80;;;2.10;99.90;;;;;;5051008;28;20279;-72
2023/02/28 10:33:00;;;;;;;14.67;9.77;;;2.20;99.90;;;;;;5059505;28;20972;-72
2023/02/28 10:35:26;;;;;;;10.73;9.60;;;2.20;99.90;;;;;;5043385;28;20482;-72
2023/02/28 10:38:04;;;;;;;12.77;9.13;;;2.30;99.90;;;;;;5044961;28;20209;-73
2023/02/28 10:40:35;;;;;;;11.47;10.00;;;2.60;99.90;;;;;;5053310;28;20467;-72
2023/02/28 10:43:13;;;;;;;11.40;10.20;;;2.60;99.90;;;;;;5052558;28;20523;-72
2023/02/28 10:45:39;;;;;;;14.20;11.73;;;2.80;99.90;;;;;;5051090;28;20434;-72
2023/02/28 10:48:13;;;;;;;12.40;10.40;;;2.90;99.90;;;;;;5054792;28;20449;-72
2023/02/28 10:50:50;;;;;;;15.30;10.70;;;3.10;99.90;;;;;;5058368;28;20890;-72
2023/02/28 10:53:24;;;;;;;10.83;9.67;;;3.50;99.90;;;;;;5056411;28;20442;-72
2023/02/28 10:56:08;;;;;;;11.60;8.93;;;3.70;99.90;;;;;;5050260;28;20465;-72
2023/02/28 10:58:57;;;;;;;13.10;10.90;;;3.50;99.90;;;;;;5057773;28;20453;-72
2023/02/28 11:01:39;;;;;;;13.50;11.00;;;3.50;99.90;;;;;;5065299;28;20435;-72
2023/02/28 11:04:29;;;;;;;15.23;10.90;;;3.70;99.90;;;;;;5055924;28;20423;-72
2023/02/28 11:06:58;;;;;;;14.37;10.53;;;4.10;99.90;;;;;;5043262;28;20440;-72
2023/02/28 11:09:27;;;;;;;11.37;10.17;;;4.30;99.90;;;;;;5050576;28;20473;-72
2023/02/28 11:11:53;;;;;;;13.83;10.60;;;4.60;99.90;;;;;;5045498;28;20432;-72
2023/02/28 11:14:25;;;;;;;12.27;10.20;;;4.90;99.90;;;;;;5054007;28;20447;-74
2023/02/28 11:16:52;;;;;;;10.67;9.57;;;4.80;99.90;;;;;;5053105;28;20213;-74
2023/02/28 11:19:45;;;;;;;14.30;10.13;;;4.70;99.90;;;;;;5055708;28;20467;-75
2023/02/28 11:22:16;;;;;;;11.47;10.23;;;4.60;99.90;;;;;;5053754;28;20979;-74
2023/02/28 11:24:46;;;;;;;12.27;11.03;;;5.30;99.90;;;;;;5046483;28;20505;-72
2023/02/28 11:27:30;;;;;;;11.40;10.30;;;5.60;99.60;;;;;;5045337;28;20463;-75
2023/02/28 11:29:56;;;;;;;13.40;10.77;;;5.60;99.20;;;;;;5044304;28;21000;-74
2023/02/28 11:32:24;;;;;;;13.10;10.90;;;5.60;99.80;;;;;;5046283;28;20949;-72
2023/02/28 11:35:08;;;;;;;12.23;10.73;;;6.20;98.20;;;;;;5054266;28;20440;-75
2023/02/28 11:37:35;;;;;;;10.87;9.77;;;6.70;96.70;;;;;;5045860;28;20490;-74
2023/02/28 11:40:00;;;;;;;11.83;10.63;;;7.00;94.70;;;;;;5045139;28;21047;-74
2023/02/28 11:42:30;;;;;;;13.03;10.23;;;7.30;93.60;;;;;;5041160;28;20561;-75
2023/02/28 11:45:26;;;;;;;13.10;11.17;;;7.30;92.60;;;;;;5046599;28;20235;-75
2023/02/28 11:48:17;;;;;;;11.70;10.60;;;8.30;91.70;;;;;;5050410;28;20492;-72
2023/02/28 11:51:02;;;;;;;11.27;10.27;;;10.70;81.90;;;;;;5052766;28;20586;-72
2023/02/28 11:54:00;;;;;;;11.73;10.60;;;12.10;69.90;;;;;;5055945;28;20439;-72
2023/02/28 11:56:37;;;;;;;11.87;10.87;;;14.10;67.10;;;;;;5046617;28;20968;-72
2023/02/28 11:59:39;;;;;;;12.33;11.27;;;14.90;58.70;;;;;;5051089;28;20479;-72
2023/02/28 12:02:28;;;;;;;12.43;11.23;;;15.10;55.80;;;;;;5048322;28;20439;-72
2023/02/28 12:05:12;;;;;;;15.43;12.10;;;16.00;54.50;;;;;;5051625;28;20443;-72
2023/02/28 12:08:04;;;;;;;13.33;12.13;;;17.00;51.40;;;;;;5050612;28;20574;-72
2023/02/28 12:10:35;;;;;;;17.33;11.70;;;17.20;49.20;;;;;;5048856;28;20495;-72
2023/02/28 12:13:18;;;;;;;12.53;11.43;;;17.40;46.70;;;;;;5056947;28;20991;-72
2023/02/28 12:16:03;;;;;;;13.10;12.00;;;16.90;46.20;;;;;;5045160;28;20467;-72
2023/02/28 12:18:45;;;;;;;12.33;11.23;;;17.50;46.80;;;;;;5051152;28;20876;-72
2023/02/28 12:21:29;;;;;;;11.70;10.80;;;19.20;41.70;;;;;;5051248;28;20980;-72
2023/02/28 12:24:06;;;;;;;12.47;11.37;;;18.50;40.50;;;;;;5048147;28;20548;-72
2023/02/28 12:26:38;;;;;;;13.20;12.10;;;15.90;42.20;;;;;;5052117;28;20911;-72
2023/02/28 12:29:19;;;;;;;12.40;11.23;;;14.10;44.90;;;;;;5061222;28;20464;-75
2023/02/28 12:31:50;;;;;;;13.40;12.20;;;13.40;47.00;;;;;;5046250;28;20528;-74
2023/02/28 12:34:21;;;;;;;12.27;11.20;;;13.10;47.60;;;;;;5048886;28;20435;-74
2023/02/28 12:36:48;;;;;;;12.83;11.63;;;14.00;47.10;;;;;;5045436;28;20838;-75
2023/02/28 12:39:23;;;;;;;12.83;11.73;;;15.50;45.10;;;;;;5049159;28;20463;-72
2023/02/28 12:41:53;;;;;;;12.00;11.07;;;16.40;43.90;;;;;;5051342;28;20952;-74
2023/02/28 12:44:47;;;;;;;12.40;11.33;;;18.40;41.70;;;;;;5059058;28;20438;-75
2023/02/28 12:47:16;;;;;;;9.70;9.00;;;18.60;39.70;;;;;;5046179;28;20435;-75
2023/02/28 12:49:54;;;;;;;11.90;11.00;;;18.20;39.10;;;;;;5047522;28;20521;-75
2023/02/28 12:52:27;;;;;;;11.73;10.77;;;18.30;39.40;;;;;;5047903;28;20435;-73
2023/02/28 12:55:05;;;;;;;12.63;11.50;;;19.10;39.00;;;;;;5047673;28;20439;-75
2023/02/28 12:57:48;;;;;;;13.47;12.37;;;18.70;38.10;;;;;;5050925;28;20456;-75
2023/02/28 13:00:17;;;;;;;13.13;11.93;;;18.00;38.50;;;;;;5047616;28;20553;-75
2023/02/28 13:03:13;;;;;;;12.10;10.93;;;15.60;41.00;;;;;;5050855;28;20478;-75